sensor_id;sensor_type;location;lat;lon;timestamp;pressure;altitude;pressure_sealevel;temperature;humidity
56668;BME280;42542;48.360;10.958;2022-07-05T00:28:56;96359.34;;;19.19;94.77
56668;BME280;42542;48.360;10.958;2022-07-05T00:32:17;96346.69;;;19.06;94.77
56668;BME280;42542;48.360;10.958;2022-07-05T00:39:08;96345.84;;;18.99;95.26
56668;BME280;42542;48.360;10.958;2022-07-05T00:43:28;96375.22;;;19.08;95.57
56668;BME280;42542;48.360;10.958;2022-07-05T00:46:50;96355.03;;;18.98;94.85
56668;BME280;42542;48.360;10.958;2022-07-05T00:57:43;96361.28;;;18.85;95.23
56668;BME280;42542;48.360;10.958;2022-07-05T01:00:51;96358.16;;;18.82;95.01
56668;BME280;42542;48.360;10.958;2022-07-05T01:03:56;96366.06;;;18.83;95.26
56668;BME280;42542;48.360;10.958;2022-07-05T01:07:11;96377.75;;;18.84;94.95
56668;BME280;42542;48.360;10.958;2022-07-05T01:10:43;96370.47;;;18.78;95.77
56668;BME280;42542;48.360;10.958;2022-07-05T01:13:58;96361.72;;;18.69;96.25
56668;BME280;42542;48.360;10.958;2022-07-05T01:17:24;96360.25;;;18.66;95.92
56668;BME280;42542;48.360;10.958;2022-07-05T01:20:50;96370.88;;;18.75;96.70
56668;BME280;42542;48.360;10.958;2022-07-05T01:24:27;96362.34;;;18.78;97.02
56668;BME280;42542;48.360;10.958;2022-07-05T01:27:48;96350.03;;;18.68;96.80
56668;BME280;42542;48.360;10.958;2022-07-05T01:31:00;96355.47;;;18.68;96.82
56668;BME280;42542;48.360;10.958;2022-07-05T01:34:20;96346.31;;;18.63;97.02
56668;BME280;42542;48.360;10.958;2022-07-05T01:37:31;96360.69;;;18.70;97.01
56668;BME280;42542;48.360;10.958;2022-07-05T01:40:54;96361.31;;;18.65;97.02
56668;BME280;42542;48.360;10.958;2022-07-05T01:44:06;96370.88;;;18.68;97.07
56668;BME280;42542;48.360;10.958;2022-07-05T01:47:16;96356.50;;;18.61;96.99
56668;BME280;42542;48.360;10.958;2022-07-05T01:51:13;96351.06;;;18.54;97.21
56668;BME280;42542;48.360;10.958;2022-07-05T01:54:33;96355.66;;;18.60;97.03
56668;BME280;42542;48.360;10.958;2022-07-05T01:57:39;96362.34;;;18.58;96.98
56668;BME280;42542;48.360;10.958;2022-07-05T02:01:38;96349.00;;;18.50;97.51
56668;BME280;42542;48.360;10.958;2022-07-05T02:04:50;96364.22;;;18.57;97.64
56668;BME280;42542;48.360;10.958;2022-07-05T02:08:01;96359.59;;;18.45;97.67
56668;BME280;42542;48.360;10.958;2022-07-05T02:11:24;96372.09;;;18.52;98.01
56668;BME280;42542;48.360;10.958;2022-07-05T02:14:32;96370.84;;;18.48;98.21
56668;BME280;42542;48.360;10.958;2022-07-05T02:17:48;96385.63;;;18.52;97.99
56668;BME280;42542;48.360;10.958;2022-07-05T02:21:08;96371.25;;;18.45;98.48
56668;BME280;42542;48.360;10.958;2022-07-05T02:24:16;96380.22;;;18.52;98.68
56668;BME280;42542;48.360;10.958;2022-07-05T02:27:59;96369.56;;;18.44;98.25
56668;BME280;42542;48.360;10.958;2022-07-05T02:31:37;96375.63;;;18.46;98.04
56668;BME280;42542;48.360;10.958;2022-07-05T02:34:51;96374.59;;;18.47;98.37
56668;BME280;42542;48.360;10.958;2022-07-05T02:37:57;96381.66;;;18.48;98.38
56668;BME280;42542;48.360;10.958;2022-07-05T02:41:27;96372.06;;;18.39;98.51
56668;BME280;42542;48.360;10.958;2022-07-05T02:44:39;96369.56;;;18.31;98.64
56668;BME280;42542;48.360;10.958;2022-07-05T02:52:10;96384.97;;;18.37;99.13
56668;BME280;42542;48.360;10.958;2022-07-05T02:55:18;96395.19;;;18.42;99.32
56668;BME280;42542;48.360;10.958;2022-07-05T02:58:32;96377.91;;;18.29;99.33
56668;BME280;42542;48.360;10.958;2022-07-05T03:01:48;96371.03;;;18.27;99.24
56668;BME280;42542;48.360;10.958;2022-07-05T03:05:04;96380.00;;;18.27;100.00
56668;BME280;42542;48.360;10.958;2022-07-05T03:08:23;96375.59;;;18.26;99.78
56668;BME280;42542;48.360;10.958;2022-07-05T03:11:36;96378.94;;;18.28;99.34
56668;BME280;42542;48.360;10.958;2022-07-05T03:14:43;96384.13;;;18.30;99.40
56668;BME280;42542;48.360;10.958;2022-07-05T03:18:08;96388.75;;;18.29;99.56
56668;BME280;42542;48.360;10.958;2022-07-05T03:21:29;96397.47;;;18.31;99.99
56668;BME280;42542;48.360;10.958;2022-07-05T03:24:35;96388.09;;;18.27;100.00
56668;BME280;42542;48.360;10.958;2022-07-05T03:27:51;96387.91;;;18.22;99.73
56668;BME280;42542;48.360;10.958;2022-07-05T03:31:19;96383.91;;;18.18;99.69
56668;BME280;42542;48.360;10.958;2022-07-05T03:34:30;96392.25;;;18.23;99.60
56668;BME280;42542;48.360;10.958;2022-07-05T03:37:37;96376.81;;;18.11;99.58
56668;BME280;42542;48.360;10.958;2022-07-05T03:40:51;96384.94;;;18.11;99.06
56668;BME280;42542;48.360;10.958;2022-07-05T03:44:04;96381.81;;;18.07;99.01
56668;BME280;42542;48.360;10.958;2022-07-05T03:47:15;96399.31;;;18.11;99.12
56668;BME280;42542;48.360;10.958;2022-07-05T03:50:30;96380.97;;;18.00;99.19
56668;BME280;42542;48.360;10.958;2022-07-05T03:53:45;96389.69;;;18.02;99.10
56668;BME280;42542;48.360;10.958;2022-07-05T03:57:08;96392.19;;;17.97;99.08
56668;BME280;42542;48.360;10.958;2022-07-05T04:01:30;96415.53;;;18.05;98.90
56668;BME280;42542;48.360;10.958;2022-07-05T04:04:35;96401.53;;;17.94;99.76
56668;BME280;42542;48.360;10.958;2022-07-05T04:08:03;96381.56;;;17.89;99.77
56668;BME280;42542;48.360;10.958;2022-07-05T04:11:24;96390.09;;;17.86;99.76
56668;BME280;42542;48.360;10.958;2022-07-05T04:14:34;96403.84;;;17.98;100.00
56668;BME280;42542;48.360;10.958;2022-07-05T04:18:04;96410.91;;;17.92;100.00
56668;BME280;42542;48.360;10.958;2022-07-05T04:21:27;96414.22;;;17.94;100.00
56668;BME280;42542;48.360;10.958;2022-07-05T04:24:43;96413.41;;;17.93;100.00
56668;BME280;42542;48.360;10.958;2022-07-05T04:28:05;96398.41;;;17.84;100.00
56668;BME280;42542;48.360;10.958;2022-07-05T04:31:51;96410.28;;;17.90;100.00
56668;BME280;42542;48.360;10.958;2022-07-05T04:34:57;96415.06;;;17.94;100.00
56668;BME280;42542;48.360;10.958;2022-07-05T04:38:17;96405.06;;;17.88;100.00
56668;BME280;42542;48.360;10.958;2022-07-05T04:41:50;96409.44;;;17.89;100.00
56668;BME280;42542;48.360;10.958;2022-07-05T04:44:52;96422.59;;;17.99;100.00
56668;BME280;42542;48.360;10.958;2022-07-05T04:47:55;96419.69;;;18.01;100.00
56668;BME280;42542;48.360;10.958;2022-07-05T04:51:09;96424.69;;;18.10;100.00
56668;BME280;42542;48.360;10.958;2022-07-05T04:54:30;96411.56;;;18.01;99.84
56668;BME280;42542;48.360;10.958;2022-07-05T04:58:30;96412.81;;;18.05;99.80
56668;BME280;42542;48.360;10.958;2022-07-05T05:02:39;96411.16;;;18.10;99.67
56668;BME280;42542;48.360;10.958;2022-07-05T05:14:55;96404.16;;;18.36;96.83
56668;BME280;42542;48.360;10.958;2022-07-05T05:19:16;96401.84;;;18.39;95.76
56668;BME280;42542;48.360;10.958;2022-07-05T05:22:58;96402.28;;;18.49;95.60
56668;BME280;42542;48.360;10.958;2022-07-05T05:30:31;96399.22;;;18.65;92.95
56668;BME280;42542;48.360;10.958;2022-07-05T05:33:53;96399.81;;;18.74;92.52
56668;BME280;42542;48.360;10.958;2022-07-05T05:37:05;96395.03;;;18.83;92.92
56668;BME280;42542;48.360;10.958;2022-07-05T05:40:12;96410.44;;;18.95;90.49
56668;BME280;42542;48.360;10.958;2022-07-05T05:43:48;96411.06;;;18.97;87.90
56668;BME280;42542;48.360;10.958;2022-07-05T05:47:07;96410.88;;;18.99;88.00
56668;BME280;42542;48.360;10.958;2022-07-05T05:50:54;96409.00;;;18.99;85.71
56668;BME280;42542;48.360;10.958;2022-07-05T05:54:35;96408.78;;;19.01;86.18
56668;BME280;42542;48.360;10.958;2022-07-05T05:57:54;96421.28;;;19.15;85.84
56668;BME280;42542;48.360;10.958;2022-07-05T06:16:11;96444.78;;;19.41;77.54
56668;BME280;42542;48.360;10.958;2022-07-05T06:19:22;96440.63;;;19.38;77.42
56668;BME280;42542;48.360;10.958;2022-07-05T06:22:44;96448.56;;;19.46;79.40
56668;BME280;42542;48.360;10.958;2022-07-05T06:26:12;96450.44;;;19.59;77.52
56668;BME280;42542;48.360;10.958;2022-07-05T06:29:16;96450.00;;;19.56;76.31
56668;BME280;42542;48.360;10.958;2022-07-05T06:32:23;96458.13;;;19.62;76.21
56668;BME280;42542;48.360;10.958;2022-07-05T06:35:29;96455.00;;;19.65;76.67
56668;BME280;42542;48.360;10.958;2022-07-05T06:38:35;96454.53;;;19.75;76.34
56668;BME280;42542;48.360;10.958;2022-07-05T06:42:04;96465.16;;;19.83;74.74
56668;BME280;42542;48.360;10.958;2022-07-05T06:49:35;96475.50;;;20.12;73.95
56668;BME280;42542;48.360;10.958;2022-07-05T06:53:41;96480.69;;;20.20;74.62
56668;BME280;42542;48.360;10.958;2022-07-05T06:57:28;96474.19;;;20.21;72.65
56668;BME280;42542;48.360;10.958;2022-07-05T07:02:02;96463.75;;;20.18;72.69
56668;BME280;42542;48.360;10.958;2022-07-05T07:05:20;96476.25;;;20.26;72.96
56668;BME280;42542;48.360;10.958;2022-07-05T07:08:36;96472.28;;;20.35;73.53
56668;BME280;42542;48.360;10.958;2022-07-05T07:15:58;96480.06;;;20.63;73.46
56668;BME280;42542;48.360;10.958;2022-07-05T07:19:33;96479.66;;;20.66;73.25
56668;BME280;42542;48.360;10.958;2022-07-05T07:23:12;96481.22;;;20.80;72.58
56668;BME280;42542;48.360;10.958;2022-07-05T07:30:29;96484.25;;;20.90;68.19
56668;BME280;42542;48.360;10.958;2022-07-05T07:33:37;96489.22;;;21.00;67.78
56668;BME280;42542;48.360;10.958;2022-07-05T07:36:48;96506.72;;;21.11;64.27
56668;BME280;42542;48.360;10.958;2022-07-05T07:40:08;96499.63;;;21.10;60.21
56668;BME280;42542;48.360;10.958;2022-07-05T07:43:40;96487.91;;;21.09;61.85
56668;BME280;42542;48.360;10.958;2022-07-05T07:47:16;96491.84;;;21.13;59.77
56668;BME280;42542;48.360;10.958;2022-07-05T07:50:39;96502.88;;;21.25;56.58
56668;BME280;42542;48.360;10.958;2022-07-05T07:54:24;96508.84;;;21.33;57.54
56668;BME280;42542;48.360;10.958;2022-07-05T07:57:39;96499.84;;;21.33;58.40
56668;BME280;42542;48.360;10.958;2022-07-05T08:01:00;96497.75;;;21.35;57.99
56668;BME280;42542;48.360;10.958;2022-07-05T08:04:26;96494.53;;;21.45;56.97
56668;BME280;42542;48.360;10.958;2022-07-05T08:08:23;96506.50;;;21.62;57.13
56668;BME280;42542;48.360;10.958;2022-07-05T08:12:16;96501.44;;;21.65;53.84
56668;BME280;42542;48.360;10.958;2022-07-05T08:19:12;96497.63;;;21.91;51.39
56668;BME280;42542;48.360;10.958;2022-07-05T08:22:57;96497.97;;;22.01;50.90
56668;BME280;42542;48.360;10.958;2022-07-05T08:26:33;96484.72;;;22.05;51.27
56668;BME280;42542;48.360;10.958;2022-07-05T08:30:19;96506.66;;;22.28;51.66
56668;BME280;42542;48.360;10.958;2022-07-05T08:37:57;96492.09;;;22.34;48.91
56668;BME280;42542;48.360;10.958;2022-07-05T08:46:10;96509.19;;;22.59;45.26
56668;BME280;42542;48.360;10.958;2022-07-05T08:49:54;96509.53;;;22.81;44.34
56668;BME280;42542;48.360;10.958;2022-07-05T08:53:45;96514.19;;;22.92;43.10
56668;BME280;42542;48.360;10.958;2022-07-05T08:57:08;96496.66;;;22.88;43.30
56668;BME280;42542;48.360;10.958;2022-07-05T09:00:55;96507.81;;;22.98;42.54
56668;BME280;42542;48.360;10.958;2022-07-05T09:04:35;96515.72;;;23.18;43.09
56668;BME280;42542;48.360;10.958;2022-07-05T09:07:48;96502.75;;;23.14;41.71
56668;BME280;42542;48.360;10.958;2022-07-05T09:10:55;96506.22;;;23.21;42.37
56668;BME280;42542;48.360;10.958;2022-07-05T09:13:57;96503.84;;;23.24;42.54
56668;BME280;42542;48.360;10.958;2022-07-05T09:17:19;96504.09;;;23.34;42.82
56668;BME280;42542;48.360;10.958;2022-07-05T09:20:28;96514.47;;;23.56;43.00
56668;BME280;42542;48.360;10.958;2022-07-05T09:27:09;96518.16;;;23.96;42.44
56668;BME280;42542;48.360;10.958;2022-07-05T09:30:26;96490.63;;;23.86;40.98
56668;BME280;42542;48.360;10.958;2022-07-05T09:33:50;96498.00;;;23.74;40.84
56668;BME280;42542;48.360;10.958;2022-07-05T09:37:17;96499.78;;;23.68;41.72
56668;BME280;42542;48.360;10.958;2022-07-05T09:41:00;96500.25;;;23.54;41.59
56668;BME280;42542;48.360;10.958;2022-07-05T09:44:54;96520.66;;;23.51;40.48
56668;BME280;42542;48.360;10.958;2022-07-05T09:48:10;96508.38;;;23.42;41.77
56668;BME280;42542;48.360;10.958;2022-07-05T09:51:46;96508.63;;;23.41;41.36
56668;BME280;42542;48.360;10.958;2022-07-05T09:55:14;96507.91;;;23.45;42.28
56668;BME280;42542;48.360;10.958;2022-07-05T09:58:28;96512.94;;;23.60;41.59
56668;BME280;42542;48.360;10.958;2022-07-05T10:01:33;96509.72;;;23.63;41.75
56668;BME280;42542;48.360;10.958;2022-07-05T10:04:42;96505.47;;;23.67;41.69
56668;BME280;42542;48.360;10.958;2022-07-05T10:21:34;96504.72;;;24.41;38.35
56668;BME280;42542;48.360;10.958;2022-07-05T10:25:03;96508.59;;;24.45;37.46
56668;BME280;42542;48.360;10.958;2022-07-05T10:28:07;96506.22;;;24.49;36.96
56668;BME280;42542;48.360;10.958;2022-07-05T10:31:11;96505.81;;;24.57;35.97
56668;BME280;42542;48.360;10.958;2022-07-05T10:34:14;96505.34;;;24.60;36.04
56668;BME280;42542;48.360;10.958;2022-07-05T10:38:09;96497.75;;;24.62;34.46
56668;BME280;42542;48.360;10.958;2022-07-05T10:41:40;96503.69;;;24.59;34.38
56668;BME280;42542;48.360;10.958;2022-07-05T10:45:51;96504.53;;;24.60;34.69
56668;BME280;42542;48.360;10.958;2022-07-05T10:49:11;96494.06;;;24.57;34.90
56668;BME280;42542;48.360;10.958;2022-07-05T10:52:43;96512.19;;;24.74;34.62
56668;BME280;42542;48.360;10.958;2022-07-05T11:04:38;96475.06;;;24.90;31.97
56668;BME280;42542;48.360;10.958;2022-07-05T11:08:00;96487.00;;;25.01;31.79
56668;BME280;42542;48.360;10.958;2022-07-05T11:11:13;96490.53;;;25.13;32.19
56668;BME280;42542;48.360;10.958;2022-07-05T11:17:42;96487.63;;;25.36;32.45
56668;BME280;42542;48.360;10.958;2022-07-05T11:21:28;96480.34;;;25.42;31.13
56668;BME280;42542;48.360;10.958;2022-07-05T11:24:57;96468.56;;;25.58;32.17
56668;BME280;42542;48.360;10.958;2022-07-05T11:28:21;96477.59;;;25.75;30.38
56668;BME280;42542;48.360;10.958;2022-07-05T11:31:41;96475.56;;;25.87;31.54
56668;BME280;42542;48.360;10.958;2022-07-05T11:38:04;96460.84;;;26.10;30.77
56668;BME280;42542;48.360;10.958;2022-07-05T11:41:32;96460.56;;;26.28;31.27
56668;BME280;42542;48.360;10.958;2022-07-05T11:44:35;96463.88;;;26.30;31.10
56668;BME280;42542;48.360;10.958;2022-07-05T11:47:54;96461.72;;;26.32;30.88
56668;BME280;42542;48.360;10.958;2022-07-05T11:51:12;96461.13;;;26.30;30.48
56668;BME280;42542;48.360;10.958;2022-07-05T11:54:22;96472.38;;;26.29;30.48
56668;BME280;42542;48.360;10.958;2022-07-05T11:57:30;96462.22;;;26.29;30.54
56668;BME280;42542;48.360;10.958;2022-07-05T12:00:35;96469.00;;;26.43;31.16
56668;BME280;42542;48.360;10.958;2022-07-05T12:03:55;96462.53;;;26.55;30.51
56668;BME280;42542;48.360;10.958;2022-07-05T12:06:58;96460.75;;;26.65;31.97
56668;BME280;42542;48.360;10.958;2022-07-05T12:10:02;96458.50;;;26.62;31.35
56668;BME280;42542;48.360;10.958;2022-07-05T12:13:51;96461.00;;;26.42;30.80
56668;BME280;42542;48.360;10.958;2022-07-05T12:17:12;96455.38;;;26.54;31.56
56668;BME280;42542;48.360;10.958;2022-07-05T12:20:23;96462.84;;;26.58;31.64
56668;BME280;42542;48.360;10.958;2022-07-05T12:23:28;96454.22;;;26.71;30.93
56668;BME280;42542;48.360;10.958;2022-07-05T12:26:30;96460.91;;;26.59;30.21
56668;BME280;42542;48.360;10.958;2022-07-05T12:29:33;96463.50;;;26.43;31.36
56668;BME280;42542;48.360;10.958;2022-07-05T12:33:04;96455.53;;;26.42;31.00
56668;BME280;42542;48.360;10.958;2022-07-05T12:36:11;96451.72;;;26.70;32.13
56668;BME280;42542;48.360;10.958;2022-07-05T12:39:16;96452.84;;;26.96;31.67
56668;BME280;42542;48.360;10.958;2022-07-05T12:42:35;96446.41;;;27.12;31.20
56668;BME280;42542;48.360;10.958;2022-07-05T12:45:39;96441.19;;;27.10;29.87
56668;BME280;42542;48.360;10.958;2022-07-05T12:48:41;96445.19;;;26.98;30.25
56668;BME280;42542;48.360;10.958;2022-07-05T12:51:44;96447.63;;;26.94;30.68
56668;BME280;42542;48.360;10.958;2022-07-05T12:55:10;96445.66;;;26.90;29.72
56668;BME280;42542;48.360;10.958;2022-07-05T12:58:31;96448.97;;;26.92;30.65
56668;BME280;42542;48.360;10.958;2022-07-05T13:01:40;96450.25;;;27.11;30.18
56668;BME280;42542;48.360;10.958;2022-07-05T13:04:54;96449.78;;;27.19;30.21
56668;BME280;42542;48.360;10.958;2022-07-05T13:07:56;96448.66;;;27.15;30.45
56668;BME280;42542;48.360;10.958;2022-07-05T13:10:58;96444.53;;;27.17;30.40
56668;BME280;42542;48.360;10.958;2022-07-05T13:14:00;96450.50;;;27.09;29.89
56668;BME280;42542;48.360;10.958;2022-07-05T13:17:02;96443.28;;;26.98;30.38
56668;BME280;42542;48.360;10.958;2022-07-05T13:20:04;96450.88;;;26.91;30.22
56668;BME280;42542;48.360;10.958;2022-07-05T13:23:06;96437.09;;;26.86;30.91
56668;BME280;42542;48.360;10.958;2022-07-05T13:26:08;96437.34;;;26.85;30.86
56668;BME280;42542;48.360;10.958;2022-07-05T13:29:10;96439.22;;;26.79;30.75
56668;BME280;42542;48.360;10.958;2022-07-05T13:32:12;96436.97;;;26.76;31.13
56668;BME280;42542;48.360;10.958;2022-07-05T13:35:13;96447.06;;;26.70;31.05
56668;BME280;42542;48.360;10.958;2022-07-05T13:38:15;96439.06;;;26.64;31.51
56668;BME280;42542;48.360;10.958;2022-07-05T13:41:17;96446.28;;;26.75;31.78
56668;BME280;42542;48.360;10.958;2022-07-05T13:44:19;96443.56;;;27.02;31.64
56668;BME280;42542;48.360;10.958;2022-07-05T13:47:21;96440.72;;;27.18;30.84
56668;BME280;42542;48.360;10.958;2022-07-05T13:50:23;96435.59;;;27.32;31.02
56668;BME280;42542;48.360;10.958;2022-07-05T13:53:34;96444.94;;;27.63;31.00
56668;BME280;42542;48.360;10.958;2022-07-05T13:56:38;96440.22;;;28.01;31.01
56668;BME280;42542;48.360;10.958;2022-07-05T13:59:39;96445.09;;;28.30;30.24
56668;BME280;42542;48.360;10.958;2022-07-05T14:02:42;96444.91;;;28.62;30.32
56668;BME280;42542;48.360;10.958;2022-07-05T14:05:44;96438.16;;;28.95;29.57
56668;BME280;42542;48.360;10.958;2022-07-05T14:08:46;96433.75;;;28.94;29.20
56668;BME280;42542;48.360;10.958;2022-07-05T14:11:48;96431.81;;;29.05;29.53
56668;BME280;42542;48.360;10.958;2022-07-05T14:14:50;96436.00;;;29.18;29.36
56668;BME280;42542;48.360;10.958;2022-07-05T14:17:52;96431.56;;;29.22;29.61
56668;BME280;42542;48.360;10.958;2022-07-05T14:20:54;96432.69;;;29.41;29.31
56668;BME280;42542;48.360;10.958;2022-07-05T14:23:55;96428.81;;;29.72;29.34
56668;BME280;42542;48.360;10.958;2022-07-05T14:27:00;96430.72;;;29.92;27.10
56668;BME280;42542;48.360;10.958;2022-07-05T14:30:05;96423.56;;;30.01;27.55
56668;BME280;42542;48.360;10.958;2022-07-05T14:33:07;96423.22;;;30.18;27.33
56668;BME280;42542;48.360;10.958;2022-07-05T14:36:09;96420.69;;;30.32;26.71
56668;BME280;42542;48.360;10.958;2022-07-05T14:39:10;96420.34;;;30.43;26.91
56668;BME280;42542;48.360;10.958;2022-07-05T14:42:19;96419.72;;;30.67;26.66
56668;BME280;42542;48.360;10.958;2022-07-05T14:45:21;96416.66;;;30.73;26.61
56668;BME280;42542;48.360;10.958;2022-07-05T14:48:29;96411.72;;;30.65;26.56
56668;BME280;42542;48.360;10.958;2022-07-05T14:51:30;96416.69;;;30.68;26.82
56668;BME280;42542;48.360;10.958;2022-07-05T14:54:32;96404.75;;;30.78;27.20
56668;BME280;42542;48.360;10.958;2022-07-05T14:57:35;96401.84;;;31.03;26.72
56668;BME280;42542;48.360;10.958;2022-07-05T15:00:37;96404.50;;;31.18;26.28
56668;BME280;42542;48.360;10.958;2022-07-05T15:03:39;96405.63;;;31.17;26.22
56668;BME280;42542;48.360;10.958;2022-07-05T15:06:41;96409.72;;;31.25;26.67
56668;BME280;42542;48.360;10.958;2022-07-05T15:09:43;96405.25;;;31.58;26.43
56668;BME280;42542;48.360;10.958;2022-07-05T15:12:45;96403.47;;;31.43;25.83
56668;BME280;42542;48.360;10.958;2022-07-05T15:15:46;96395.16;;;31.48;26.48
56668;BME280;42542;48.360;10.958;2022-07-05T15:18:48;96397.78;;;31.63;25.81
56668;BME280;42542;48.360;10.958;2022-07-05T15:21:50;96394.16;;;31.68;25.55
56668;BME280;42542;48.360;10.958;2022-07-05T15:24:52;96399.44;;;31.59;25.39
56668;BME280;42542;48.360;10.958;2022-07-05T15:27:55;96409.47;;;31.50;25.83
56668;BME280;42542;48.360;10.958;2022-07-05T15:30:57;96401.88;;;31.37;25.56
56668;BME280;42542;48.360;10.958;2022-07-05T15:33:58;96391.72;;;31.27;25.96
56668;BME280;42542;48.360;10.958;2022-07-05T15:37:00;96391.88;;;31.07;25.97
56668;BME280;42542;48.360;10.958;2022-07-05T15:40:07;96396.00;;;30.65;26.23
56668;BME280;42542;48.360;10.958;2022-07-05T15:43:09;96387.28;;;30.38;26.90
56668;BME280;42542;48.360;10.958;2022-07-05T15:46:10;96387.91;;;30.25;26.97
56668;BME280;42542;48.360;10.958;2022-07-05T15:49:12;96387.75;;;29.96;26.64
56668;BME280;42542;48.360;10.958;2022-07-05T15:52:14;96376.78;;;29.50;27.13
56668;BME280;42542;48.360;10.958;2022-07-05T15:55:15;96383.94;;;29.21;27.89
56668;BME280;42542;48.360;10.958;2022-07-05T15:58:17;96378.97;;;28.88;28.32
56668;BME280;42542;48.360;10.958;2022-07-05T16:01:19;96380.81;;;28.62;28.67
56668;BME280;42542;48.360;10.958;2022-07-05T16:04:21;96387.63;;;28.39;28.92
56668;BME280;42542;48.360;10.958;2022-07-05T16:07:22;96373.28;;;28.22;28.84
56668;BME280;42542;48.360;10.958;2022-07-05T16:10:24;96379.78;;;28.06;29.21
56668;BME280;42542;48.360;10.958;2022-07-05T16:13:36;96377.81;;;27.96;29.74
56668;BME280;42542;48.360;10.958;2022-07-05T16:16:38;96379.47;;;27.97;29.91
56668;BME280;42542;48.360;10.958;2022-07-05T16:19:40;96381.63;;;27.85;29.86
56668;BME280;42542;48.360;10.958;2022-07-05T16:22:41;96376.94;;;27.80;30.33
56668;BME280;42542;48.360;10.958;2022-07-05T16:25:44;96377.97;;;27.74;30.24
56668;BME280;42542;48.360;10.958;2022-07-05T16:28:47;96372.69;;;27.63;30.05
56668;BME280;42542;48.360;10.958;2022-07-05T16:31:49;96377.09;;;27.58;30.11
56668;BME280;42542;48.360;10.958;2022-07-05T16:34:53;96379.53;;;27.55;29.65
56668;BME280;42542;48.360;10.958;2022-07-05T16:37:55;96385.13;;;27.38;29.74
56668;BME280;42542;48.360;10.958;2022-07-05T16:40:58;96382.38;;;27.38;30.29
56668;BME280;42542;48.360;10.958;2022-07-05T16:43:59;96383.19;;;27.34;30.04
56668;BME280;42542;48.360;10.958;2022-07-05T16:47:01;96377.41;;;27.30;29.92
56668;BME280;42542;48.360;10.958;2022-07-05T16:50:04;96380.44;;;27.34;29.52
56668;BME280;42542;48.360;10.958;2022-07-05T16:53:06;96383.22;;;27.39;29.72
56668;BME280;42542;48.360;10.958;2022-07-05T16:56:10;96381.28;;;27.39;29.81
56668;BME280;42542;48.360;10.958;2022-07-05T16:59:12;96381.00;;;27.36;29.41
56668;BME280;42542;48.360;10.958;2022-07-05T17:02:14;96373.84;;;27.30;29.83
56668;BME280;42542;48.360;10.958;2022-07-05T17:05:16;96374.06;;;27.23;29.60
56668;BME280;42542;48.360;10.958;2022-07-05T17:08:18;96376.50;;;27.19;29.87
56668;BME280;42542;48.360;10.958;2022-07-05T17:11:19;96380.78;;;27.05;29.29
56668;BME280;42542;48.360;10.958;2022-07-05T17:14:21;96386.44;;;26.94;29.64
56668;BME280;42542;48.360;10.958;2022-07-05T17:17:24;96384.16;;;26.86;29.21
56668;BME280;42542;48.360;10.958;2022-07-05T17:20:26;96384.56;;;26.72;29.25
56668;BME280;42542;48.360;10.958;2022-07-05T17:23:28;96387.00;;;26.69;29.57
56668;BME280;42542;48.360;10.958;2022-07-05T17:26:30;96384.50;;;26.67;29.38
56668;BME280;42542;48.360;10.958;2022-07-05T17:29:37;96390.56;;;26.69;29.61
56668;BME280;42542;48.360;10.958;2022-07-05T17:32:39;96392.72;;;26.67;29.59
56668;BME280;42542;48.360;10.958;2022-07-05T17:35:40;96387.72;;;26.59;29.69
56668;BME280;42542;48.360;10.958;2022-07-05T17:38:43;96396.50;;;26.61;29.17
56668;BME280;42542;48.360;10.958;2022-07-05T17:41:46;96397.22;;;26.52;29.33
56668;BME280;42542;48.360;10.958;2022-07-05T17:44:47;96393.22;;;26.37;29.41
56668;BME280;42542;48.360;10.958;2022-07-05T17:47:53;96399.50;;;26.33;29.07
56668;BME280;42542;48.360;10.958;2022-07-05T17:50:55;96400.16;;;26.23;29.36
56668;BME280;42542;48.360;10.958;2022-07-05T17:53:56;96409.41;;;26.17;28.95
56668;BME280;42542;48.360;10.958;2022-07-05T17:56:58;96398.91;;;26.09;28.87
56668;BME280;42542;48.360;10.958;2022-07-05T18:00:01;96400.75;;;26.03;28.77
56668;BME280;42542;48.360;10.958;2022-07-05T18:03:12;96397.38;;;25.96;29.05
56668;BME280;42542;48.360;10.958;2022-07-05T18:06:14;96396.69;;;25.84;29.18
56668;BME280;42542;48.360;10.958;2022-07-05T18:09:18;96411.38;;;25.78;29.16
56668;BME280;42542;48.360;10.958;2022-07-05T18:12:20;96414.31;;;25.72;29.28
56668;BME280;42542;48.360;10.958;2022-07-05T18:15:22;96417.13;;;25.60;28.48
56668;BME280;42542;48.360;10.958;2022-07-05T18:18:23;96412.56;;;25.49;28.46
56668;BME280;42542;48.360;10.958;2022-07-05T18:21:25;96425.00;;;25.40;28.50
56668;BME280;42542;48.360;10.958;2022-07-05T18:24:27;96425.19;;;25.33;29.12
56668;BME280;42542;48.360;10.958;2022-07-05T18:27:32;96422.38;;;25.28;28.90
56668;BME280;42542;48.360;10.958;2022-07-05T18:30:35;96429.09;;;25.20;28.93
56668;BME280;42542;48.360;10.958;2022-07-05T18:33:38;96431.41;;;25.12;28.95
56668;BME280;42542;48.360;10.958;2022-07-05T18:36:39;96427.66;;;25.01;28.84
56668;BME280;42542;48.360;10.958;2022-07-05T18:39:41;96435.19;;;24.94;28.76
56668;BME280;42542;48.360;10.958;2022-07-05T18:42:43;96428.69;;;24.83;28.83
56668;BME280;42542;48.360;10.958;2022-07-05T18:45:44;96428.09;;;24.81;29.10
56668;BME280;42542;48.360;10.958;2022-07-05T18:48:46;96429.84;;;24.71;29.00
56668;BME280;42542;48.360;10.958;2022-07-05T18:51:48;96430.31;;;24.68;29.16
56668;BME280;42542;48.360;10.958;2022-07-05T18:54:49;96434.03;;;24.62;28.86
56668;BME280;42542;48.360;10.958;2022-07-05T18:57:51;96432.28;;;24.56;29.45
56668;BME280;42542;48.360;10.958;2022-07-05T19:00:53;96435.97;;;24.49;29.32
56668;BME280;42542;48.360;10.958;2022-07-05T19:03:55;96440.19;;;24.40;29.81
56668;BME280;42542;48.360;10.958;2022-07-05T19:06:57;96442.00;;;24.35;30.09